Fayette City, Pennsylvania
Current Conditions -  °F | °C
As of 11:53 AM on Thursday 27 Nov 2014 (Local Time) from KAGC Reporting Station
Overcast Overcast  
Wind Chill: 27°   Ceiling: 2300
Heat Index: 34°   Visibility: 10mi
Dew Point: 24°   Wind: 9mph
Humidity: 67%   Direction: 290°WNW
Pressure: 30.05"   Gusts: NA
Location:  40.1°N, 79.84°W
Report Text: KAGC 271653Z 29008KT 10SM BKN023 BKN028 OVC070 01/M04 A3005 RMK AO2 SLP192 T00111044
Loading
Personal Weather Stations






























Interactive Weather Map New forecast layout! Learn more

10-Day Weather Forecast

Advertisements
Track Severe Weather on mobile